createdAt,value
2023-03-08T00:03:25.738Z,12.23
2023-03-08T00:06:13.779Z,10.88
2023-03-08T00:09:01.147Z,12.13
2023-03-08T00:11:45.914Z,12.13
2023-03-08T00:14:30.930Z,11.65
2023-03-08T00:17:17.057Z,11.32
2023-03-08T00:20:01.906Z,12.25
2023-03-08T00:22:46.905Z,12.38
2023-03-08T00:25:32.028Z,11.98
2023-03-08T00:28:17.080Z,11.52
2023-03-08T00:31:05.646Z,12.40
2023-03-08T00:33:54.740Z,12.65
2023-03-08T00:36:39.338Z,11.48
2023-03-08T00:39:24.780Z,12.35
2023-03-08T00:42:09.445Z,11.93
2023-03-08T00:44:54.460Z,12.55
2023-03-08T00:47:39.457Z,11.63
2023-03-08T00:50:24.351Z,11.65
2023-03-08T00:53:09.610Z,12.68
2023-03-08T00:55:59.620Z,11.95
2023-03-08T00:58:47.304Z,12.48
2023-03-08T01:01:33.172Z,12.68
2023-03-08T01:04:18.323Z,11.73
2023-03-08T01:07:03.344Z,12.50
2023-03-08T01:09:48.464Z,11.98
2023-03-08T01:12:35.945Z,11.98
2023-03-08T01:15:20.757Z,12.63
2023-03-08T01:20:57.467Z,11.85
2023-03-08T01:23:42.695Z,12.10
2023-03-08T01:26:27.848Z,13.15
2023-03-08T01:29:13.399Z,12.43
2023-03-08T01:31:58.007Z,11.68
2023-03-08T01:37:27.399Z,11.75
2023-03-08T01:40:16.119Z,11.48
2023-03-08T01:43:21.049Z,12.20
2023-03-08T01:46:24.873Z,11.65
2023-03-08T01:49:32.838Z,12.45
2023-03-08T01:52:29.264Z,12.52
2023-03-08T01:55:16.685Z,12.57
2023-03-08T01:58:01.971Z,11.85
2023-03-08T02:00:47.253Z,12.63
2023-03-08T02:03:32.705Z,12.65
2023-03-08T02:06:19.795Z,12.90
2023-03-08T02:09:05.143Z,12.95
2023-03-08T02:11:51.121Z,13.02
2023-03-08T02:14:36.574Z,12.02
2023-03-08T02:17:22.078Z,11.82
2023-03-08T02:20:24.707Z,11.63
2023-03-08T02:23:17.354Z,11.63
2023-03-08T02:26:05.405Z,12.50
2023-03-08T02:28:50.038Z,12.07
2023-03-08T02:31:34.925Z,12.45
2023-03-08T02:34:19.685Z,11.60
2023-03-08T02:37:04.799Z,13.95
2023-03-08T02:39:49.729Z,12.48
2023-03-08T02:42:34.814Z,11.75
2023-03-08T02:45:19.715Z,11.85
2023-03-08T02:48:06.677Z,11.82
2023-03-08T02:50:51.489Z,12.25
2023-03-08T02:53:36.425Z,12.30
2023-03-08T02:56:21.533Z,11.98
2023-03-08T03:03:10.337Z,11.13
2023-03-08T03:05:55.085Z,11.63
2023-03-08T03:08:46.483Z,12.45
2023-03-08T03:11:31.751Z,11.70
2023-03-08T03:14:17.374Z,11.75
2023-03-08T03:17:03.214Z,11.73
2023-03-08T03:19:48.224Z,12.27
2023-03-08T03:22:33.424Z,12.43
2023-03-08T03:25:18.229Z,12.93
2023-03-08T03:28:04.774Z,12.02
2023-03-08T03:30:50.537Z,11.55
2023-03-08T03:33:35.699Z,11.98
2023-03-08T03:39:06.854Z,12.40
2023-03-08T03:41:54.239Z,11.38
2023-03-08T03:44:38.949Z,10.90
2023-03-08T03:47:25.476Z,11.85
2023-03-08T03:50:14.932Z,11.77
2023-03-08T03:53:13.550Z,12.18
2023-03-08T03:56:05.923Z,11.68
2023-03-08T03:58:52.144Z,12.15
2023-03-08T04:01:39.221Z,10.68
2023-03-08T04:04:33.247Z,12.68
2023-03-08T04:07:18.439Z,12.30
2023-03-08T04:10:11.408Z,11.63
2023-03-08T04:15:41.379Z,12.38
2023-03-08T04:18:29.214Z,11.63
2023-03-08T04:21:14.897Z,12.50
2023-03-08T04:24:00.832Z,12.82
2023-03-08T04:26:47.192Z,12.98
2023-03-08T04:29:36.365Z,12.73
2023-03-08T04:32:21.370Z,12.90
2023-03-08T04:35:10.762Z,13.00
2023-03-08T04:37:58.042Z,12.10
2023-03-08T04:41:01.310Z,11.40
2023-03-08T04:43:56.263Z,11.75
2023-03-08T04:49:39.970Z,10.85
2023-03-08T04:52:25.355Z,12.65
2023-03-08T04:55:10.738Z,11.98
2023-03-08T04:57:56.738Z,11.63
2023-03-08T05:00:43.250Z,11.38
2023-03-08T05:03:28.022Z,12.02
2023-03-08T05:06:16.420Z,12.52
2023-03-08T05:09:01.726Z,11.90
2023-03-08T05:11:47.362Z,12.38
2023-03-08T05:14:33.508Z,13.43
2023-03-08T05:17:18.395Z,12.27
2023-03-08T05:20:03.839Z,12.80
2023-03-08T05:22:58.970Z,12.15
2023-03-08T05:25:54.694Z,11.70
2023-03-08T05:28:41.365Z,10.95
2023-03-08T05:31:26.772Z,11.75
2023-03-08T05:34:13.283Z,12.05
2023-03-08T05:37:02.418Z,11.10
2023-03-08T05:39:50.025Z,11.32
2023-03-08T05:42:38.829Z,10.55
2023-03-08T05:45:23.715Z,11.73
2023-03-08T05:48:09.183Z,10.60
2023-03-08T05:50:54.911Z,11.23
2023-03-08T05:53:40.821Z,10.65
2023-03-08T05:56:26.933Z,10.05
2023-03-08T05:59:26.826Z,9.45
2023-03-08T06:02:16.080Z,9.98
2023-03-08T06:05:05.649Z,10.63
2023-03-08T06:07:50.734Z,9.90
2023-03-08T06:10:36.472Z,10.35
2023-03-08T06:13:21.693Z,9.07
2023-03-08T06:16:08.176Z,9.65
2023-03-08T06:18:57.161Z,9.32
2023-03-08T06:21:45.047Z,10.27
2023-03-08T06:25:14.634Z,9.45
2023-03-08T06:32:06.301Z,8.70
2023-03-08T06:35:39.297Z,7.80
2023-03-08T06:39:03.271Z,8.88
2023-03-08T06:41:58.342Z,8.82
2023-03-08T06:44:48.032Z,8.43
2023-03-08T06:50:31.396Z,8.15
2023-03-08T06:56:35.581Z,7.60
2023-03-08T06:59:30.114Z,8.32
2023-03-08T07:02:33.085Z,7.90
2023-03-08T07:13:59.858Z,8.77
2023-03-08T07:17:23.162Z,8.88
2023-03-08T07:20:44.249Z,8.35
2023-03-08T07:23:58.324Z,8.63
2023-03-08T07:28:08.708Z,8.63
2023-03-08T07:31:13.274Z,8.20
2023-03-08T07:35:08.699Z,8.23
2023-03-08T07:45:48.978Z,7.97
2023-03-08T07:53:46.488Z,8.27
2023-03-08T08:03:03.197Z,8.27
2023-03-08T08:05:54.262Z,7.88
2023-03-08T08:09:13.034Z,7.75
2023-03-08T08:12:37.796Z,8.38
2023-03-08T08:15:45.361Z,6.93
2023-03-08T08:18:37.274Z,7.90
2023-03-08T08:26:28.596Z,8.15
2023-03-08T08:29:49.614Z,7.78
2023-03-08T08:40:08.826Z,9.25
2023-03-08T08:42:55.868Z,8.70
2023-03-08T08:46:32.620Z,9.25
2023-03-08T08:49:46.541Z,8.93
2023-03-08T08:53:05.641Z,9.57
2023-03-08T08:55:53.670Z,9.50
2023-03-08T08:59:48.511Z,9.02
2023-03-08T09:25:23.353Z,9.10
2023-03-08T09:28:17.687Z,8.75
2023-03-08T09:34:52.035Z,10.25
2023-03-08T09:38:09.943Z,9.70
2023-03-08T09:41:29.303Z,9.30
2023-03-08T09:52:37.845Z,9.55
2023-03-08T09:55:55.302Z,8.95
2023-03-08T09:59:17.495Z,9.23
2023-03-08T10:02:02.709Z,8.27
2023-03-08T10:05:12.694Z,8.25
2023-03-08T10:08:36.904Z,8.90
2023-03-08T10:11:46.376Z,8.90
2023-03-08T10:15:07.119Z,8.63
2023-03-08T10:25:51.679Z,9.35
2023-03-08T10:28:36.827Z,12.02
2023-03-08T10:31:59.324Z,8.93
2023-03-08T10:37:36.239Z,8.43
2023-03-08T10:40:48.360Z,9.25
2023-03-08T10:47:58.886Z,10.02
2023-03-08T10:50:45.851Z,11.23
2023-03-08T10:53:32.080Z,12.27
2023-03-08T10:56:37.703Z,12.25
2023-03-08T10:59:47.439Z,10.32
2023-03-08T11:02:35.583Z,12.40
2023-03-08T11:05:28.306Z,11.07
2023-03-08T11:08:21.123Z,10.23
2023-03-08T11:11:08.024Z,9.68
2023-03-08T11:13:54.015Z,9.38
2023-03-08T11:17:05.498Z,10.02
2023-03-08T11:20:16.312Z,9.93
2023-03-08T11:23:26.237Z,9.23
2023-03-08T11:27:39.760Z,9.45
2023-03-08T11:30:39.132Z,9.00
2023-03-08T11:34:01.948Z,9.90
2023-03-08T11:37:09.025Z,10.45
2023-03-08T11:40:06.087Z,10.63
2023-03-08T11:43:24.728Z,10.05
2023-03-08T11:46:48.455Z,10.25
2023-03-08T11:49:48.110Z,9.77
2023-03-08T11:53:04.116Z,10.48
2023-03-08T11:56:02.972Z,11.77
2023-03-08T11:58:52.748Z,10.65
2023-03-08T12:02:03.276Z,11.07
2023-03-08T12:08:38.620Z,10.88
2023-03-08T12:11:36.431Z,11.02
2023-03-08T12:14:28.607Z,10.52
2023-03-08T12:17:34.388Z,10.85
2023-03-08T12:20:45.504Z,10.38
2023-03-08T12:23:39.816Z,11.10
2023-03-08T12:26:45.640Z,10.90
2023-03-08T12:29:49.127Z,10.35
2023-03-08T12:32:37.916Z,10.10
2023-03-08T12:35:22.952Z,9.75
2023-03-08T12:38:20.341Z,9.75
2023-03-08T12:41:25.795Z,10.60
2023-03-08T12:44:58.660Z,10.38
2023-03-08T12:47:55.631Z,10.45
2023-03-08T12:50:44.675Z,11.70
2023-03-08T12:53:40.171Z,11.75
2023-03-08T12:56:30.652Z,12.18
2023-03-08T12:59:15.348Z,10.30
2023-03-08T13:05:00.692Z,11.80
2023-03-08T13:08:11.778Z,11.43
2023-03-08T13:11:04.358Z,12.65
2023-03-08T13:14:01.060Z,12.80
2023-03-08T13:16:49.292Z,13.25
2023-03-08T13:19:35.419Z,14.02
2023-03-08T13:22:28.129Z,13.02
2023-03-08T13:25:27.716Z,12.40
2023-03-08T13:28:21.269Z,11.82
2023-03-08T13:31:31.618Z,13.00
2023-03-08T13:34:30.762Z,12.77
2023-03-08T13:37:24.080Z,12.52
2023-03-08T13:40:18.513Z,12.75
2023-03-08T13:43:05.025Z,12.85
2023-03-08T13:45:58.189Z,12.15
2023-03-08T13:48:44.645Z,13.45
2023-03-08T13:51:29.815Z,12.35
2023-03-08T13:54:19.770Z,13.20
2023-03-08T13:57:16.796Z,11.35
2023-03-08T14:00:21.410Z,12.80
2023-03-08T14:03:06.948Z,11.45
2023-03-08T14:05:52.362Z,11.00
2023-03-08T14:08:37.377Z,11.50
2023-03-08T14:11:26.482Z,10.38
2023-03-08T14:14:19.770Z,10.00
2023-03-08T14:17:04.999Z,9.15
2023-03-08T14:20:21.393Z,11.02
2023-03-08T14:23:23.717Z,11.40
2023-03-08T14:26:28.278Z,11.50
2023-03-08T14:29:21.605Z,11.32
2023-03-08T14:32:30.794Z,11.38
2023-03-08T14:35:22.432Z,11.85
2023-03-08T14:38:23.419Z,10.90
2023-03-08T14:41:10.648Z,11.07
2023-03-08T14:43:56.063Z,9.15
2023-03-08T14:46:41.222Z,9.20
2023-03-08T14:49:28.985Z,8.98
2023-03-08T14:52:20.697Z,8.93
2023-03-08T14:55:22.566Z,8.00
2023-03-08T14:58:13.104Z,9.05
2023-03-08T15:01:01.074Z,9.88
2023-03-08T15:03:46.083Z,9.52
2023-03-08T15:06:35.745Z,9.50
2023-03-08T15:09:21.939Z,7.30
2023-03-08T15:12:08.891Z,8.02
2023-03-08T15:14:53.574Z,7.55
2023-03-08T15:17:38.579Z,10.25
2023-03-08T15:20:24.401Z,9.23
2023-03-08T15:23:15.575Z,8.88
2023-03-08T15:26:00.470Z,9.27
2023-03-08T15:28:45.377Z,8.93
2023-03-08T15:31:31.535Z,11.35
2023-03-08T15:34:16.247Z,11.90
2023-03-08T15:37:01.076Z,10.93
2023-03-08T15:39:46.078Z,12.18
2023-03-08T15:42:31.275Z,10.98
2023-03-08T15:45:16.500Z,10.80
2023-03-08T15:48:04.517Z,11.55
2023-03-08T15:50:49.635Z,11.52
2023-03-08T15:53:35.567Z,12.27
2023-03-08T15:56:22.157Z,11.75
2023-03-08T15:59:06.918Z,15.07
2023-03-08T16:01:51.994Z,15.65
2023-03-08T16:04:37.075Z,12.57
2023-03-08T16:07:22.249Z,12.50
2023-03-08T16:10:10.018Z,13.70
2023-03-08T16:12:54.989Z,14.05
2023-03-08T16:15:40.892Z,16.13
2023-03-08T16:18:27.573Z,15.30
2023-03-08T16:21:12.692Z,15.10
2023-03-08T16:23:58.939Z,16.63
2023-03-08T16:26:43.935Z,16.30
2023-03-08T16:29:28.940Z,16.13
2023-03-08T16:32:14.485Z,15.95
2023-03-08T16:35:00.416Z,15.80
2023-03-08T16:37:45.180Z,15.77
2023-03-08T16:40:30.657Z,18.33
2023-03-08T16:43:16.940Z,21.23
2023-03-08T16:46:02.098Z,21.63
2023-03-08T16:48:49.503Z,20.92
2023-03-08T16:51:36.612Z,22.35
2023-03-08T16:54:22.774Z,23.00
2023-03-08T16:57:18.751Z,24.73
2023-03-08T17:00:06.060Z,26.08
2023-03-08T17:02:51.075Z,25.95
2023-03-08T17:05:39.685Z,24.25
2023-03-08T17:08:24.697Z,21.63
2023-03-08T17:11:24.967Z,21.65
2023-03-08T17:14:11.477Z,19.90
2023-03-08T17:16:56.700Z,19.83
2023-03-08T17:19:41.456Z,21.42
2023-03-08T17:22:26.684Z,23.13
2023-03-08T17:27:55.795Z,43.35
2023-03-08T17:30:42.200Z,38.95
2023-03-08T17:33:26.987Z,35.75
2023-03-08T17:36:13.448Z,31.70
2023-03-08T17:38:58.474Z,32.75
2023-03-08T17:41:44.236Z,36.08
2023-03-08T17:44:29.212Z,38.20
2023-03-08T17:49:58.267Z,46.67
2023-03-08T17:52:43.341Z,58.30
2023-03-08T17:55:32.325Z,60.58
2023-03-08T17:58:19.245Z,64.35
2023-03-08T18:01:18.952Z,69.18
2023-03-08T18:04:04.493Z,72.28
2023-03-08T18:06:49.084Z,70.88
2023-03-08T18:09:34.220Z,65.25
2023-03-08T18:12:19.223Z,65.72
2023-03-08T18:17:49.619Z,62.45
2023-03-08T18:20:34.632Z,60.70
2023-03-08T18:23:21.446Z,55.60
2023-03-08T18:26:06.474Z,48.35
2023-03-08T18:28:51.881Z,53.80
2023-03-08T18:31:36.627Z,56.35
2023-03-08T18:34:21.509Z,55.63
2023-03-08T18:37:06.494Z,55.75
2023-03-08T18:39:54.698Z,53.42
2023-03-08T18:42:40.317Z,49.88
2023-03-08T18:45:25.281Z,43.88
2023-03-08T18:50:54.708Z,26.13
2023-03-08T18:53:39.724Z,26.27
2023-03-08T18:56:26.336Z,23.65
2023-03-08T18:59:13.469Z,22.83
2023-03-08T19:01:57.995Z,24.40
2023-03-08T19:04:43.032Z,25.75
2023-03-08T19:10:14.173Z,27.25
2023-03-08T19:12:58.679Z,31.63
2023-03-08T19:15:43.846Z,33.17
2023-03-08T19:18:28.755Z,35.70
2023-03-08T19:24:01.965Z,36.40
2023-03-08T19:29:34.568Z,53.40
2023-03-08T19:32:19.530Z,64.70
2023-03-08T19:37:49.747Z,47.72
2023-03-08T19:40:34.776Z,46.75
2023-03-08T19:43:19.807Z,42.67
2023-03-08T19:46:05.153Z,37.88
2023-03-08T19:48:50.058Z,34.05
2023-03-08T19:51:35.716Z,33.42
2023-03-08T19:54:22.558Z,27.95
2023-03-08T19:57:08.651Z,24.33
2023-03-08T19:59:54.084Z,22.25
2023-03-08T20:02:42.070Z,20.15
2023-03-08T20:05:27.184Z,18.83
2023-03-08T20:08:13.354Z,18.75
2023-03-08T20:10:58.189Z,19.48
2023-03-08T20:16:28.219Z,17.80
2023-03-08T20:19:13.387Z,20.85
2023-03-08T20:21:58.175Z,20.90
2023-03-08T20:24:43.283Z,21.45
2023-03-08T20:30:14.784Z,20.98
2023-03-08T20:32:59.712Z,21.48
2023-03-08T20:35:47.229Z,21.90
2023-03-08T20:38:32.683Z,20.73
2023-03-08T20:44:03.182Z,20.92
2023-03-08T20:46:48.380Z,21.58
2023-03-08T20:52:18.430Z,32.92
2023-03-08T20:57:51.308Z,22.05
2023-03-08T21:00:36.793Z,24.92
2023-03-08T21:03:21.370Z,24.30
2023-03-08T21:06:14.635Z,22.08
2023-03-08T21:09:00.121Z,19.73
2023-03-08T21:11:45.113Z,21.08
2023-03-08T21:14:29.990Z,20.48
2023-03-08T21:17:15.189Z,19.85
2023-03-08T21:20:00.032Z,20.95
2023-03-08T21:22:44.687Z,20.05
2023-03-08T21:25:33.004Z,19.10
2023-03-08T21:28:20.319Z,19.48
2023-03-08T21:31:10.484Z,19.02
2023-03-08T21:33:55.708Z,17.77
2023-03-08T21:39:26.261Z,17.35
2023-03-08T21:42:10.950Z,17.70
2023-03-08T21:47:40.225Z,18.05
2023-03-08T21:50:26.508Z,17.95
2023-03-08T21:53:11.537Z,19.67
2023-03-08T21:55:56.667Z,19.02
2023-03-08T21:58:42.466Z,18.75
2023-03-08T22:01:29.253Z,20.25
2023-03-08T22:04:15.717Z,23.35
2023-03-08T22:07:00.570Z,23.65
2023-03-08T22:12:30.439Z,24.65
2023-03-08T22:18:00.473Z,16.48
2023-03-08T22:23:31.470Z,14.10
2023-03-08T22:26:16.683Z,15.27
2023-03-08T22:31:45.987Z,16.10
2023-03-08T22:37:15.709Z,15.02
2023-03-08T22:40:00.293Z,15.60
2023-03-08T22:42:46.387Z,15.55
2023-03-08T22:45:31.414Z,15.63
2023-03-08T22:48:16.168Z,15.75
2023-03-08T22:51:10.425Z,16.33
2023-03-08T22:53:58.488Z,15.68
2023-03-08T22:56:44.214Z,16.25
2023-03-08T22:59:28.775Z,15.07
2023-03-08T23:02:14.408Z,15.43
2023-03-08T23:04:58.892Z,14.02
2023-03-08T23:07:44.062Z,13.85
2023-03-08T23:10:28.896Z,14.38
2023-03-08T23:13:21.613Z,14.02
2023-03-08T23:16:16.977Z,13.48
2023-03-08T23:19:02.628Z,12.63
2023-03-08T23:21:47.885Z,13.90
2023-03-08T23:24:32.745Z,13.45
2023-03-08T23:30:01.997Z,12.45
2023-03-08T23:32:47.184Z,13.20
2023-03-08T23:35:32.169Z,12.52
2023-03-08T23:38:17.010Z,12.75
2023-03-08T23:41:08.316Z,12.45
2023-03-08T23:46:39.568Z,11.43
2023-03-08T23:49:24.596Z,11.70
2023-03-08T23:52:09.627Z,12.90
2023-03-08T23:54:54.523Z,12.80
2023-03-08T23:57:39.766Z,12.68
